Main page
METAR-TAF:

METAR-TAF

Airports :

Bobo Dioulasso Airport

Bobo-Dioulasso, Burkina Faso

latitude: 11-10N, longitude: 004-19W, elevation: 460 m

Current weather observation

The report was made 1 hour and 15 minutes ago, at 06:00 UTC
Wind 4 kt from the Southwest, varying between South/Southwest and West
Temperature 23°C
Humidity 100%
Pressure 1014 hPa
Visibility 10 km or more
Scattered clouds at a height of 1000 ft

METAR: DFOO 300600Z 23004KT 200V270 9999 SCT010 23/23 Q1014 RETS

Time: 07:15 (07:15 UTC)

Forecast

The report was made 2 hours and 15 minutes ago, at 05:00 UTC
Forecast valid from 30 at 06 UTC to 31 at 06 UTC
Wind 8 kt from the South/Southwest
Visibility 10 km or more
Scattered clouds at a height of 1600 ft
Temporary
from 30 at 15 UTC to 30 at 22 UTC
Visibility: 4000 m
Broken clouds at a height of 1600 ft
Few clouds at a height of 3000 ft, Cumulonimbus.
thunderstorm, rain showers

TAF: DFOO 300500Z 3006/3106 20008KT 9999 SCT016 TEMPO 3015/3022 4000 TS SHRA BKN016 FEW030CB

Weather observations and forecasts of more than 4000 airports (METAR and TAF reports).

The available stations are represented by yellow and red dots on the map.

Hover mouse over dot to see the name of the station.

Then click to see weather observations and forecasts.

To change the map : click on the green buttons with a black cross to zoom in, on the green button with a dash to zoom out, or on the green arrows for adjacent maps.


METAR-TAF: